createdAt,value
2022-12-18T00:01:20.323Z,-10.30
2022-12-18T00:03:47.271Z,-10.10
2022-12-18T00:06:14.689Z,-10.10
2022-12-18T00:08:45.180Z,-10.40
2022-12-18T00:11:15.184Z,-10.60
2022-12-18T00:13:42.210Z,-10.70
2022-12-18T00:16:11.291Z,-10.80
2022-12-18T00:18:38.393Z,-10.70
2022-12-18T00:21:07.440Z,-10.40
2022-12-18T00:23:34.566Z,-10.40
2022-12-18T00:26:05.879Z,-10.20
2022-12-18T00:28:32.495Z,-10.20
2022-12-18T00:31:06.869Z,-10.30
2022-12-18T00:33:33.798Z,-10.30
2022-12-18T00:36:11.127Z,-10.30
2022-12-18T00:38:38.037Z,-10.50
2022-12-18T00:41:05.153Z,-10.70
2022-12-18T00:43:34.339Z,-10.50
2022-12-18T00:46:00.986Z,-10.90
2022-12-18T00:48:27.667Z,-10.90
2022-12-18T00:50:54.251Z,-11.00
2022-12-18T00:53:20.862Z,-11.10
2022-12-18T00:55:47.709Z,-11.20
2022-12-18T00:58:15.439Z,-11.00
2022-12-18T01:00:42.240Z,-10.80
2022-12-18T01:03:09.000Z,-11.10
2022-12-18T01:05:39.220Z,-11.20
2022-12-18T01:08:05.816Z,-11.10
2022-12-18T01:10:32.403Z,-11.00
2022-12-18T01:12:59.012Z,-11.10
2022-12-18T01:15:25.639Z,-11.20
2022-12-18T01:17:53.691Z,-11.30
2022-12-18T01:20:20.525Z,-11.40
2022-12-18T01:22:47.577Z,-11.30
2022-12-18T01:25:14.167Z,-11.00
2022-12-18T01:27:40.842Z,-10.90
2022-12-18T01:30:08.341Z,-10.60
2022-12-18T01:32:35.097Z,-10.70
2022-12-18T01:35:02.109Z,-10.60
2022-12-18T01:37:28.716Z,-10.50
2022-12-18T01:39:55.592Z,-10.60
2022-12-18T01:42:22.409Z,-10.60
2022-12-18T01:45:13.392Z,-10.50
2022-12-18T01:47:48.197Z,-10.70
2022-12-18T01:50:17.325Z,-10.60
2022-12-18T01:52:44.716Z,-10.60
2022-12-18T01:55:11.910Z,-10.50
2022-12-18T01:57:39.075Z,-10.80
2022-12-18T02:00:20.128Z,-10.80
2022-12-18T02:02:47.470Z,-10.80
2022-12-18T02:05:36.034Z,-10.80
2022-12-18T02:08:13.123Z,-11.00
2022-12-18T02:11:17.001Z,-11.30
2022-12-18T02:14:11.099Z,-11.30
2022-12-18T02:16:44.231Z,-11.00
2022-12-18T02:19:40.088Z,-10.90
2022-12-18T02:22:15.627Z,-10.70
2022-12-18T02:25:02.241Z,-10.90
2022-12-18T02:27:30.459Z,-11.00
2022-12-18T02:29:58.881Z,-10.80
2022-12-18T02:32:27.976Z,-10.80
2022-12-18T02:34:55.076Z,-10.80
2022-12-18T02:37:21.697Z,-10.80
2022-12-18T02:39:49.086Z,-10.90
2022-12-18T02:42:15.785Z,-10.90
2022-12-18T02:44:48.241Z,-10.90
2022-12-18T02:47:15.776Z,-10.70
2022-12-18T02:50:08.611Z,-10.60
2022-12-18T02:53:03.241Z,-10.70
2022-12-18T02:55:43.149Z,-11.00
2022-12-18T02:58:19.656Z,-10.70
2022-12-18T03:01:41.694Z,-10.70
2022-12-18T03:04:15.264Z,-10.70
2022-12-18T03:06:44.550Z,-10.70
2022-12-18T03:09:13.485Z,-10.70
2022-12-18T03:12:01.472Z,-10.70
2022-12-18T03:14:29.023Z,-10.70
2022-12-18T03:16:56.057Z,-10.50
2022-12-18T03:19:23.641Z,-10.60
2022-12-18T03:21:52.428Z,-10.50
2022-12-18T03:24:19.199Z,-10.70
2022-12-18T03:26:47.353Z,-10.60
2022-12-18T03:29:17.620Z,-10.50
2022-12-18T03:31:46.543Z,-10.50
2022-12-18T03:34:18.382Z,-10.60
2022-12-18T03:36:44.978Z,-10.30
2022-12-18T03:39:11.592Z,-10.30
2022-12-18T03:41:50.569Z,-10.30
2022-12-18T03:44:31.107Z,-10.30
2022-12-18T03:47:16.388Z,-10.00
2022-12-18T03:50:12.351Z,-10.10
2022-12-18T03:52:43.605Z,-10.10
2022-12-18T03:55:10.249Z,-10.00
2022-12-18T03:57:36.835Z,-10.00
2022-12-18T04:00:14.187Z,-10.10
2022-12-18T04:02:45.992Z,-10.00
2022-12-18T04:05:12.733Z,-10.00
2022-12-18T04:07:39.403Z,-10.20
2022-12-18T04:10:07.291Z,-10.10
2022-12-18T04:12:33.885Z,-10.00
2022-12-18T04:15:00.485Z,-9.90
2022-12-18T04:17:27.135Z,-9.60
2022-12-18T04:19:53.745Z,-9.60
2022-12-18T04:22:20.360Z,-9.60
2022-12-18T04:24:47.182Z,-9.60
2022-12-18T04:27:13.784Z,-9.60
2022-12-18T04:29:40.410Z,-9.60
2022-12-18T04:32:07.053Z,-9.50
2022-12-18T04:34:33.678Z,-9.20
2022-12-18T04:37:00.290Z,-9.30
2022-12-18T04:39:26.925Z,-9.10
2022-12-18T04:41:53.581Z,-8.60
2022-12-18T04:44:20.192Z,-8.70
2022-12-18T04:46:46.858Z,-8.60
2022-12-18T04:49:13.541Z,-8.60
2022-12-18T04:51:40.284Z,-8.40
2022-12-18T04:54:06.889Z,-8.30
2022-12-18T04:56:33.497Z,-8.30
2022-12-18T04:59:00.102Z,-8.00
2022-12-18T05:01:32.500Z,-7.90
2022-12-18T05:04:01.594Z,-8.00
2022-12-18T05:06:28.292Z,-8.10
2022-12-18T05:08:54.885Z,-8.10
2022-12-18T05:11:21.488Z,-8.10
2022-12-18T05:13:48.077Z,-8.20
2022-12-18T05:16:14.911Z,-8.20
2022-12-18T05:18:41.715Z,-8.30
2022-12-18T05:21:08.348Z,-8.60
2022-12-18T05:23:35.604Z,-8.60
2022-12-18T05:26:03.289Z,-8.60
2022-12-18T05:28:30.563Z,-8.30
2022-12-18T05:30:59.169Z,-8.40
2022-12-18T05:33:26.949Z,-7.90
2022-12-18T05:35:57.911Z,-7.90
2022-12-18T05:38:25.340Z,-7.80
2022-12-18T05:40:52.211Z,-7.90
2022-12-18T05:43:21.540Z,-8.20
2022-12-18T05:45:48.786Z,-8.50
2022-12-18T05:48:15.648Z,-8.60
2022-12-18T05:50:43.160Z,-8.80
2022-12-18T05:53:09.769Z,-8.90
2022-12-18T05:55:36.823Z,-8.90
2022-12-18T05:58:04.205Z,-9.00
2022-12-18T06:00:32.942Z,-9.10
2022-12-18T06:03:00.170Z,-9.10
2022-12-18T06:05:26.860Z,-9.20
2022-12-18T06:07:53.508Z,-9.20
2022-12-18T06:10:20.366Z,-9.20
2022-12-18T06:12:46.953Z,-9.30
2022-12-18T06:15:14.165Z,-9.40
2022-12-18T06:17:41.152Z,-9.50
2022-12-18T06:20:08.212Z,-9.50
2022-12-18T06:22:35.882Z,-9.50
2022-12-18T06:25:02.535Z,-9.40
2022-12-18T06:27:29.158Z,-9.30
2022-12-18T06:29:55.764Z,-9.40
2022-12-18T06:32:22.407Z,-9.40
2022-12-18T06:34:49.022Z,-9.40
2022-12-18T06:37:15.626Z,-9.60
2022-12-18T06:39:42.221Z,-9.60
2022-12-18T06:42:08.832Z,-9.80
2022-12-18T06:44:35.473Z,-9.80
2022-12-18T06:47:02.086Z,-9.70
2022-12-18T06:49:30.575Z,-9.60
2022-12-18T06:51:57.493Z,-9.60
2022-12-18T06:54:24.094Z,-9.60
2022-12-18T06:56:50.807Z,-9.60
2022-12-18T06:59:17.682Z,-9.70
2022-12-18T07:01:44.495Z,-9.60
2022-12-18T07:04:11.196Z,-9.60
2022-12-18T07:06:37.891Z,-9.50
2022-12-18T07:09:04.547Z,-8.90
2022-12-18T07:11:33.046Z,-8.80
2022-12-18T07:13:59.661Z,-9.10
2022-12-18T07:16:26.391Z,-8.50
2022-12-18T07:18:53.826Z,-7.80
2022-12-18T07:21:20.612Z,-7.70
2022-12-18T07:23:48.812Z,-7.30
2022-12-18T07:26:16.755Z,-7.50
2022-12-18T07:28:43.475Z,-8.10
2022-12-18T07:31:18.054Z,-8.10
2022-12-18T07:33:44.846Z,-8.00
2022-12-18T07:36:11.843Z,-8.20
2022-12-18T07:38:38.538Z,-8.20
2022-12-18T07:41:12.654Z,-8.40
2022-12-18T07:43:39.717Z,-8.40
2022-12-18T07:46:06.988Z,-8.40
2022-12-18T07:48:33.615Z,-8.30
2022-12-18T07:51:01.041Z,-8.10
2022-12-18T07:53:27.709Z,-7.70
2022-12-18T07:56:25.360Z,-7.80
2022-12-18T07:58:45.356Z,-7.40
2022-12-18T08:01:12.724Z,-7.30
2022-12-18T08:03:40.405Z,-6.60
2022-12-18T08:06:09.634Z,-6.60
2022-12-18T08:08:36.385Z,-6.40
2022-12-18T08:11:03.021Z,-6.50
2022-12-18T08:13:29.795Z,-6.50
2022-12-18T08:15:57.934Z,-6.60
2022-12-18T08:18:24.624Z,-6.80
2022-12-18T08:20:51.265Z,-6.90
2022-12-18T08:23:17.932Z,-7.10
2022-12-18T08:25:44.948Z,-7.40
2022-12-18T08:28:11.818Z,-7.40
2022-12-18T08:30:38.442Z,-7.40
2022-12-18T08:33:05.354Z,-7.30
2022-12-18T08:35:38.750Z,-7.40
2022-12-18T08:38:07.789Z,-7.40
2022-12-18T08:40:34.449Z,-7.20
2022-12-18T08:43:19.569Z,-7.20
2022-12-18T08:45:46.217Z,-7.10
2022-12-18T08:48:15.588Z,-7.00
2022-12-18T08:50:44.457Z,-6.80
2022-12-18T08:53:11.117Z,-6.80
2022-12-18T08:55:37.749Z,-6.60
2022-12-18T08:58:04.352Z,-6.50
2022-12-18T09:00:31.116Z,-6.30
2022-12-18T09:02:57.851Z,-6.20
2022-12-18T09:05:24.588Z,-6.00
2022-12-18T09:07:51.200Z,-5.60
2022-12-18T09:10:17.787Z,-5.40
2022-12-18T09:12:45.580Z,-5.20
2022-12-18T09:15:12.509Z,-5.10
2022-12-18T09:17:39.181Z,-5.20
2022-12-18T09:20:06.341Z,-5.00
2022-12-18T09:22:32.927Z,-4.90
2022-12-18T09:24:59.539Z,-4.70
2022-12-18T09:27:26.141Z,-4.70
2022-12-18T09:29:52.736Z,-4.30
2022-12-18T09:32:22.472Z,-4.40
2022-12-18T09:34:49.309Z,-4.40
2022-12-18T09:37:15.901Z,-4.30
2022-12-18T09:39:42.587Z,-4.40
2022-12-18T09:42:14.339Z,-4.20
2022-12-18T09:44:45.425Z,-4.10
2022-12-18T09:47:27.111Z,-4.10
2022-12-18T09:50:17.291Z,-4.10
2022-12-18T09:52:46.228Z,-4.00
2022-12-18T09:55:16.308Z,-4.20
2022-12-18T09:57:46.381Z,-4.10
2022-12-18T10:00:18.903Z,-3.90
2022-12-18T10:02:45.585Z,-4.10
2022-12-18T10:05:21.928Z,-4.10
2022-12-18T10:08:07.127Z,-4.00
2022-12-18T10:10:59.105Z,-3.70
2022-12-18T10:13:31.823Z,-3.80
2022-12-18T10:16:10.598Z,-3.80
2022-12-18T10:19:04.821Z,-3.70
2022-12-18T10:21:39.806Z,-3.60
2022-12-18T10:24:14.132Z,-3.70
2022-12-18T10:26:41.931Z,-3.80
2022-12-18T10:29:14.589Z,-3.60
2022-12-18T10:31:41.292Z,-3.50
2022-12-18T10:34:12.114Z,-3.60
2022-12-18T10:36:38.868Z,-3.40
2022-12-18T10:39:38.120Z,-3.40
2022-12-18T10:42:20.271Z,-3.40
2022-12-18T10:44:47.569Z,-3.40
2022-12-18T10:47:18.504Z,-3.30
2022-12-18T10:49:50.439Z,-3.10
2022-12-18T10:52:20.419Z,-3.00
2022-12-18T10:55:02.729Z,-3.00
2022-12-18T10:57:39.585Z,-3.00
2022-12-18T11:00:28.594Z,-3.20
2022-12-18T11:02:56.607Z,-3.20
2022-12-18T11:05:34.776Z,-3.10
2022-12-18T11:08:01.679Z,-3.20
2022-12-18T11:10:32.782Z,-3.20
2022-12-18T11:13:11.667Z,-3.00
2022-12-18T11:15:38.340Z,-3.10
2022-12-18T11:18:04.964Z,-2.90
2022-12-18T11:20:36.294Z,-3.00
2022-12-18T11:23:12.099Z,-3.00
2022-12-18T11:25:39.216Z,-3.00
2022-12-18T11:28:25.803Z,-2.90
2022-12-18T11:31:24.593Z,-3.00
2022-12-18T11:34:28.730Z,-2.90
2022-12-18T11:36:56.411Z,-2.90
2022-12-18T11:39:39.507Z,-2.70
2022-12-18T11:42:19.520Z,-2.70
2022-12-18T11:44:52.952Z,-2.70
2022-12-18T11:47:45.070Z,-2.40
2022-12-18T11:50:19.668Z,-2.50
2022-12-18T11:52:47.721Z,-2.60
2022-12-18T11:55:46.462Z,-2.60
2022-12-18T11:58:35.046Z,-2.60
2022-12-18T12:01:44.045Z,-2.50
2022-12-18T12:04:34.504Z,-2.30
2022-12-18T12:07:10.909Z,-2.20
2022-12-18T12:09:52.660Z,-2.30
2022-12-18T12:12:48.575Z,-2.20
2022-12-18T12:15:51.011Z,-1.70
2022-12-18T12:18:20.641Z,-2.10
2022-12-18T12:20:56.172Z,-2.10
2022-12-18T12:23:31.696Z,-2.20
2022-12-18T12:26:09.901Z,-2.20
2022-12-18T12:28:53.863Z,-2.20
2022-12-18T12:31:53.360Z,-2.20
2022-12-18T12:34:19.997Z,-1.80
2022-12-18T12:37:12.457Z,-2.20
2022-12-18T12:39:41.292Z,-1.30
2022-12-18T12:42:33.854Z,-1.90
2022-12-18T12:45:00.442Z,-1.80
2022-12-18T12:47:33.857Z,-2.00
2022-12-18T12:50:02.082Z,-2.00
2022-12-18T12:52:31.987Z,-1.90
2022-12-18T12:54:58.653Z,-1.80
2022-12-18T12:57:46.917Z,-1.80
2022-12-18T13:00:17.819Z,-1.80
2022-12-18T13:03:00.696Z,-1.60
2022-12-18T13:05:52.257Z,-1.70
2022-12-18T13:08:33.188Z,-1.60
2022-12-18T13:11:20.178Z,-1.80
2022-12-18T13:13:54.474Z,-1.70
2022-12-18T13:16:22.658Z,-1.70
2022-12-18T13:18:58.704Z,-1.90
2022-12-18T13:21:33.261Z,-2.00
2022-12-18T13:24:24.565Z,-1.90
2022-12-18T13:26:51.387Z,-1.90
2022-12-18T13:29:43.537Z,-1.80
2022-12-18T13:32:24.658Z,-1.80
2022-12-18T13:35:38.226Z,-1.50
2022-12-18T13:38:32.788Z,-1.70
2022-12-18T13:41:08.316Z,-1.80
2022-12-18T13:43:44.377Z,-1.60
2022-12-18T13:46:46.047Z,-1.70
2022-12-18T13:49:13.195Z,-1.70
2022-12-18T13:51:49.110Z,-1.70
2022-12-18T13:54:35.705Z,-1.70
2022-12-18T13:57:02.729Z,-1.70
2022-12-18T13:59:36.671Z,-1.70
2022-12-18T14:02:15.240Z,-1.70
2022-12-18T14:04:42.683Z,-1.60
2022-12-18T14:07:13.909Z,-1.60
2022-12-18T14:09:55.641Z,-1.30
2022-12-18T14:12:50.223Z,-1.50
2022-12-18T14:15:34.164Z,-1.60
2022-12-18T14:18:10.142Z,-1.50
2022-12-18T14:20:36.740Z,-1.60
2022-12-18T14:23:03.493Z,-1.60
2022-12-18T14:25:31.221Z,-1.60
2022-12-18T14:28:09.058Z,-1.40
2022-12-18T14:30:45.969Z,-1.60
2022-12-18T14:33:13.577Z,-1.30
2022-12-18T14:35:52.619Z,-1.40
2022-12-18T14:38:23.935Z,-1.50
2022-12-18T14:41:00.352Z,-1.40
2022-12-18T14:43:28.065Z,-1.40
2022-12-18T14:45:54.870Z,-1.50
2022-12-18T14:48:25.186Z,-1.40
2022-12-18T14:51:13.661Z,-1.50
2022-12-18T14:53:42.688Z,-1.30
2022-12-18T14:56:31.799Z,-1.40
2022-12-18T14:59:06.072Z,-1.50
2022-12-18T15:01:55.282Z,-1.60
2022-12-18T15:04:33.127Z,-1.50
2022-12-18T15:07:17.444Z,-1.60
2022-12-18T15:10:04.318Z,-1.50
2022-12-18T15:12:37.666Z,-1.60
2022-12-18T15:15:05.762Z,-1.50
2022-12-18T15:17:32.371Z,-1.60
2022-12-18T15:20:04.083Z,-1.50
2022-12-18T15:22:32.849Z,-1.60
2022-12-18T15:24:59.518Z,-1.60
2022-12-18T15:27:36.310Z,-1.50
2022-12-18T15:30:08.899Z,-1.60
2022-12-18T15:32:38.791Z,-1.60
2022-12-18T15:35:18.784Z,-1.60
2022-12-18T15:37:45.446Z,-1.70
2022-12-18T15:40:17.357Z,-1.70
2022-12-18T15:43:02.355Z,-1.70
2022-12-18T15:45:28.971Z,-1.60
2022-12-18T15:47:56.065Z,-1.50
2022-12-18T15:50:22.738Z,-1.70
2022-12-18T15:52:50.777Z,-1.70
2022-12-18T15:55:44.841Z,-1.60
2022-12-18T15:58:12.316Z,-1.60
2022-12-18T16:00:40.010Z,-1.50
2022-12-18T16:03:07.195Z,-1.60
2022-12-18T16:05:34.082Z,-1.70
2022-12-18T16:08:00.727Z,-1.60
2022-12-18T16:10:27.401Z,-1.60
2022-12-18T16:12:54.019Z,-1.70
2022-12-18T16:15:24.597Z,-1.60
2022-12-18T16:17:52.533Z,-1.60
2022-12-18T16:20:21.637Z,-1.60
2022-12-18T16:22:48.657Z,-1.60
2022-12-18T16:25:23.827Z,-1.50
2022-12-18T16:27:50.583Z,-1.50
2022-12-18T16:30:20.127Z,-1.50
2022-12-18T16:32:46.833Z,-1.60
2022-12-18T16:35:14.112Z,-1.50
2022-12-18T16:37:41.064Z,-1.70
2022-12-18T16:40:09.801Z,-1.70
2022-12-18T16:42:40.595Z,-1.60
2022-12-18T16:45:08.220Z,-1.50
2022-12-18T16:47:34.935Z,-1.60
2022-12-18T16:50:01.541Z,-1.70
2022-12-18T16:52:28.376Z,-1.60
2022-12-18T16:54:55.001Z,-1.60
2022-12-18T16:57:23.275Z,-1.70
2022-12-18T16:59:52.189Z,-1.60
2022-12-18T17:02:24.417Z,-1.60
2022-12-18T17:04:53.665Z,-1.60
2022-12-18T17:07:20.240Z,-1.50
2022-12-18T17:09:46.856Z,-1.50
2022-12-18T17:12:13.475Z,-1.60
2022-12-18T17:14:40.149Z,-1.70
2022-12-18T17:17:23.847Z,-1.50
2022-12-18T17:19:51.257Z,-1.70
2022-12-18T17:22:17.975Z,-1.70
2022-12-18T17:24:44.568Z,-1.60
2022-12-18T17:27:11.210Z,-1.70
2022-12-18T17:29:41.297Z,-1.70
2022-12-18T17:32:13.466Z,-1.70
2022-12-18T17:34:40.615Z,-1.70
2022-12-18T17:37:07.255Z,-1.50
2022-12-18T17:39:33.856Z,-1.60
2022-12-18T17:42:01.183Z,-1.60
2022-12-18T17:44:27.794Z,-1.80
2022-12-18T17:46:54.471Z,-1.70
2022-12-18T17:49:21.538Z,-1.60
2022-12-18T17:51:48.560Z,-1.40
2022-12-18T17:54:15.192Z,-1.60
2022-12-18T17:56:41.934Z,-1.80
2022-12-18T17:59:08.760Z,-1.70
2022-12-18T18:01:39.705Z,-1.60
2022-12-18T18:04:10.646Z,-1.70
2022-12-18T18:06:39.016Z,-1.50
2022-12-18T18:09:06.629Z,-1.50
2022-12-18T18:11:56.160Z,-1.40
2022-12-18T18:14:22.963Z,-1.40
2022-12-18T18:16:50.374Z,-1.40
2022-12-18T18:19:18.777Z,-1.40
2022-12-18T18:21:47.010Z,-1.30
2022-12-18T18:24:15.269Z,-1.40
2022-12-18T18:26:41.952Z,-1.30
2022-12-18T18:29:08.737Z,-1.40
2022-12-18T18:31:35.863Z,-1.40
2022-12-18T18:34:07.390Z,-1.30
2022-12-18T18:36:34.798Z,-1.30
2022-12-18T18:39:02.108Z,-1.40
2022-12-18T18:41:29.946Z,-1.30
2022-12-18T18:43:57.154Z,-1.20
2022-12-18T18:46:23.978Z,-1.10
2022-12-18T18:48:50.617Z,-1.30
2022-12-18T18:51:21.201Z,-1.10
2022-12-18T18:53:49.196Z,-1.20
2022-12-18T18:56:50.125Z,-1.30
2022-12-18T18:59:03.713Z,-1.30
2022-12-18T19:01:30.548Z,-1.10
2022-12-18T19:03:57.223Z,-1.10
2022-12-18T19:06:25.310Z,-1.10
2022-12-18T19:08:53.159Z,-1.10
2022-12-18T19:11:38.921Z,-1.20
2022-12-18T19:14:06.614Z,-1.30
2022-12-18T19:16:33.389Z,-1.30
2022-12-18T19:19:02.340Z,-1.40
2022-12-18T19:21:30.485Z,-1.40
2022-12-18T19:24:00.049Z,-1.20
2022-12-18T19:26:28.315Z,-1.20
2022-12-18T19:29:00.176Z,-1.20
2022-12-18T19:31:31.783Z,-1.30
2022-12-18T19:34:01.722Z,-1.30
2022-12-18T19:36:29.359Z,-1.20
2022-12-18T19:38:57.458Z,-1.20
2022-12-18T19:41:24.423Z,-1.20
2022-12-18T19:43:52.245Z,-1.30
2022-12-18T19:46:20.942Z,-1.20
2022-12-18T19:48:47.616Z,-1.20
2022-12-18T19:51:16.413Z,-1.10
2022-12-18T19:53:43.077Z,-1.10
2022-12-18T19:56:11.267Z,-1.20
2022-12-18T19:58:38.013Z,-1.20
2022-12-18T20:01:05.128Z,-1.10
2022-12-18T20:03:34.176Z,-1.10
2022-12-18T20:06:32.258Z,-1.00
2022-12-18T20:09:01.283Z,-1.10
2022-12-18T20:11:29.502Z,-1.10
2022-12-18T20:13:56.566Z,-1.00
2022-12-18T20:16:23.238Z,-1.10
2022-12-18T20:18:49.910Z,-1.00
2022-12-18T20:21:17.943Z,-1.00
2022-12-18T20:23:45.117Z,-1.00
2022-12-18T20:26:11.917Z,-1.10
2022-12-18T20:28:39.290Z,-0.90
2022-12-18T20:31:08.403Z,-1.00
2022-12-18T20:33:40.376Z,-0.90
2022-12-18T20:36:09.001Z,-0.90
2022-12-18T20:38:38.649Z,-1.00
2022-12-18T20:41:15.271Z,-1.00
2022-12-18T20:43:42.269Z,-1.00
2022-12-18T20:46:10.390Z,-1.00
2022-12-18T20:48:37.123Z,-1.00
2022-12-18T20:51:05.940Z,-1.00
2022-12-18T20:53:36.121Z,-1.00
2022-12-18T20:56:08.173Z,-1.00
2022-12-18T20:58:35.575Z,-1.00
2022-12-18T21:01:10.308Z,-0.90
2022-12-18T21:03:41.040Z,-0.80
2022-12-18T21:06:08.062Z,-0.90
2022-12-18T21:08:34.749Z,-0.90
2022-12-18T21:11:39.332Z,-1.00
2022-12-18T21:14:06.993Z,-0.90
2022-12-18T21:16:33.830Z,-0.90
2022-12-18T21:19:00.596Z,-0.90
2022-12-18T21:21:27.512Z,-0.80
2022-12-18T21:23:54.360Z,-0.80
2022-12-18T21:26:24.752Z,-0.70
2022-12-18T21:28:55.631Z,-0.80
2022-12-18T21:31:23.533Z,-0.60
2022-12-18T21:33:50.479Z,-0.80
2022-12-18T21:36:18.737Z,-0.80
2022-12-18T21:38:45.791Z,-0.80
2022-12-18T21:41:37.454Z,-0.70
2022-12-18T21:44:08.673Z,-0.80
2022-12-18T21:46:36.774Z,-0.70
2022-12-18T21:49:04.257Z,-0.60
2022-12-18T21:51:31.338Z,-0.60
2022-12-18T21:53:58.015Z,-0.60
2022-12-18T21:56:24.846Z,-0.60
2022-12-18T21:58:56.769Z,-0.70
2022-12-18T22:01:24.158Z,-0.70
2022-12-18T22:03:58.016Z,-0.70
2022-12-18T22:06:24.653Z,-0.80
2022-12-18T22:08:51.239Z,-0.70
2022-12-18T22:11:17.867Z,-0.70
2022-12-18T22:13:45.714Z,-0.70
2022-12-18T22:16:12.370Z,-0.70
2022-12-18T22:18:39.053Z,-0.80
2022-12-18T22:21:06.032Z,-0.60
2022-12-18T22:23:32.797Z,-0.70
2022-12-18T22:25:59.457Z,-0.50
2022-12-18T22:28:44.441Z,-0.60
2022-12-18T22:31:11.089Z,-0.60
2022-12-18T22:33:37.749Z,-0.60
2022-12-18T22:36:06.597Z,-0.60
2022-12-18T22:38:33.515Z,-0.70
2022-12-18T22:41:00.123Z,-0.50
2022-12-18T22:43:26.771Z,-0.50
2022-12-18T22:45:53.407Z,-0.50
2022-12-18T22:48:20.203Z,-0.50
2022-12-18T22:50:46.809Z,-0.50
2022-12-18T22:53:13.509Z,-0.50
2022-12-18T22:55:40.097Z,-0.50
2022-12-18T22:58:06.728Z,-0.40
2022-12-18T23:00:33.625Z,-0.30
2022-12-18T23:03:01.082Z,-0.30
2022-12-18T23:05:29.404Z,-0.20
2022-12-18T23:07:56.015Z,-0.30
2022-12-18T23:10:22.624Z,-0.30
2022-12-18T23:12:49.227Z,-0.20
2022-12-18T23:15:15.875Z,-0.20
2022-12-18T23:17:44.811Z,-0.20
2022-12-18T23:20:11.818Z,-0.20
2022-12-18T23:22:38.428Z,-0.10
2022-12-18T23:25:05.406Z,-0.10
2022-12-18T23:27:31.996Z,-0.20
2022-12-18T23:29:58.589Z,-0.10
2022-12-18T23:32:25.440Z,-0.10
2022-12-18T23:34:52.026Z,-0.10
2022-12-18T23:37:49.835Z,-0.10
2022-12-18T23:40:05.894Z,-0.10
2022-12-18T23:42:32.496Z,0.00
2022-12-18T23:44:59.116Z,0.00
2022-12-18T23:47:26.966Z,0.00
2022-12-18T23:49:53.543Z,0.00
2022-12-18T23:52:20.713Z,0.10
2022-12-18T23:54:47.344Z,0.00
2022-12-18T23:57:13.957Z,0.10
2022-12-18T23:59:40.595Z,0.10
